You are not logged in, Click here to log in
吉隆坡國際機場KUL / WMKK 馬來西亞
ICAO: WMKK Country: 馬來西亞
Latitude: 2.75452 Longitude: 101.704
Total Arrivals: 35 Total Departures: 36
Latest Arrival: MH610 (WSSS-WMKK)Lun. Wang Latest Departure: H7M86 (WMKK-VTBS)Lun. Wang
Scenery:
METAR : WMKK 241400Z VRB01KT 9999 SCT030 27/25 Q1011 NOSIG

吉隆坡國際機場KUL

You are accessing this site from IP address 54.236.35.159. Virtual Airline. CMS by phpVMS.Website designed by Zumeweb and edited by Theo Bearman.
There is 0 User(s) Online: | and 20 Guest(s) Online.
All information on this site is for fight simulation purposes only. This site is for flight logging for pilots of Virtual Airline&模擬飛行論壇 FlySim only.